sensor_id;sensor_type;location;lat;lon;timestamp;pressure;altitude;pressure_sealevel;temperature;humidity
59043;BME280;44826;51.596;5.624;2023-04-28T00:01:42;101249.25;;;8.66;60.71
59043;BME280;44826;51.596;5.624;2023-04-28T00:04:08;101255.31;;;8.65;61.52
59043;BME280;44826;51.596;5.624;2023-04-28T00:06:34;101257.06;;;8.64;62.27
59043;BME280;44826;51.596;5.624;2023-04-28T00:08:59;101253.63;;;8.62;62.58
59043;BME280;44826;51.596;5.624;2023-04-28T00:11:24;101250.19;;;8.60;62.16
59043;BME280;44826;51.596;5.624;2023-04-28T00:13:50;101246.75;;;8.58;61.64
59043;BME280;44826;51.596;5.624;2023-04-28T00:16:15;101229.50;;;8.54;61.91
59043;BME280;44826;51.596;5.624;2023-04-28T00:18:41;101230.38;;;8.55;63.02
59043;BME280;44826;51.596;5.624;2023-04-28T00:21:06;101227.81;;;8.53;63.21
59043;BME280;44826;51.596;5.624;2023-04-28T00:23:32;101226.97;;;8.51;64.55
59043;BME280;44826;51.596;5.624;2023-04-28T00:25:57;101223.53;;;8.49;63.40
59043;BME280;44826;51.596;5.624;2023-04-28T00:28:23;101232.13;;;8.46;63.59
59043;BME280;44826;51.596;5.624;2023-04-28T00:30:48;101235.63;;;8.45;64.71
59043;BME280;44826;51.596;5.624;2023-04-28T00:33:13;101233.03;;;8.44;64.36
59043;BME280;44826;51.596;5.624;2023-04-28T00:35:39;101230.47;;;8.42;65.46
59043;BME280;44826;51.596;5.624;2023-04-28T00:38:06;101228.75;;;8.41;66.73
59043;BME280;44826;51.596;5.624;2023-04-28T00:40:35;101219.25;;;8.39;66.70
59043;BME280;44826;51.596;5.624;2023-04-28T00:43:01;101210.66;;;8.37;67.13
59043;BME280;44826;51.596;5.624;2023-04-28T00:45:27;101204.63;;;8.34;67.26
59043;BME280;44826;51.596;5.624;2023-04-28T00:47:53;101201.19;;;8.32;67.27
59043;BME280;44826;51.596;5.624;2023-04-28T00:50:19;101202.94;;;8.29;66.75
59043;BME280;44826;51.596;5.624;2023-04-28T00:52:44;101196.09;;;8.25;67.21
59043;BME280;44826;51.596;5.624;2023-04-28T00:55:13;101191.78;;;8.22;67.48
59043;BME280;44826;51.596;5.624;2023-04-28T00:57:39;101187.53;;;8.18;68.37
59043;BME280;44826;51.596;5.624;2023-04-28T01:00:05;101188.41;;;8.17;69.23
59043;BME280;44826;51.596;5.624;2023-04-28T01:02:31;101188.44;;;8.14;69.66
59043;BME280;44826;51.596;5.624;2023-04-28T01:04:58;101188.47;;;8.09;70.83
59043;BME280;44826;51.596;5.624;2023-04-28T01:07:24;101181.56;;;8.07;69.84
59043;BME280;44826;51.596;5.624;2023-04-28T01:09:49;101191.97;;;8.03;71.13
59043;BME280;44826;51.596;5.624;2023-04-28T01:12:15;101190.28;;;8.01;70.93
59043;BME280;44826;51.596;5.624;2023-04-28T01:14:41;101181.66;;;8.00;72.39
59043;BME280;44826;51.596;5.624;2023-04-28T01:17:07;101175.63;;;7.98;72.25
59043;BME280;44826;51.596;5.624;2023-04-28T01:19:32;101171.31;;;7.97;72.83
59043;BME280;44826;51.596;5.624;2023-04-28T01:21:58;101164.44;;;7.93;71.75
59043;BME280;44826;51.596;5.624;2023-04-28T01:24:23;101163.63;;;7.89;72.78
59043;BME280;44826;51.596;5.624;2023-04-28T01:26:48;101158.44;;;7.89;71.60
59043;BME280;44826;51.596;5.624;2023-04-28T01:29:14;101143.75;;;7.87;71.57
59043;BME280;44826;51.596;5.624;2023-04-28T01:31:39;101140.34;;;7.85;71.39
59043;BME280;44826;51.596;5.624;2023-04-28T01:34:05;101132.59;;;7.82;71.33
59043;BME280;44826;51.596;5.624;2023-04-28T01:36:30;101128.28;;;7.81;72.08
59043;BME280;44826;51.596;5.624;2023-04-28T01:38:57;101127.44;;;7.79;72.49
59043;BME280;44826;51.596;5.624;2023-04-28T01:41:22;101123.13;;;7.81;71.95
59043;BME280;44826;51.596;5.624;2023-04-28T01:43:47;101124.84;;;7.79;71.43
59043;BME280;44826;51.596;5.624;2023-04-28T01:46:13;101134.38;;;7.77;71.81
59043;BME280;44826;51.596;5.624;2023-04-28T01:48:38;101129.22;;;7.73;71.71
59043;BME280;44826;51.596;5.624;2023-04-28T01:51:03;101122.31;;;7.72;72.20
59043;BME280;44826;51.596;5.624;2023-04-28T01:53:29;101126.66;;;7.72;72.79
59043;BME280;44826;51.596;5.624;2023-04-28T01:55:54;101118.88;;;7.72;72.08
59043;BME280;44826;51.596;5.624;2023-04-28T01:58:19;101121.47;;;7.70;72.08
59043;BME280;44826;51.596;5.624;2023-04-28T02:00:45;101115.41;;;7.71;72.52
59043;BME280;44826;51.596;5.624;2023-04-28T02:03:10;101100.75;;;7.70;72.46
59043;BME280;44826;51.596;5.624;2023-04-28T02:05:36;101117.16;;;7.69;73.16
59043;BME280;44826;51.596;5.624;2023-04-28T02:08:01;101101.66;;;7.68;73.19
59043;BME280;44826;51.596;5.624;2023-04-28T02:10:27;101111.16;;;7.67;72.46
59043;BME280;44826;51.596;5.624;2023-04-28T02:12:52;101112.91;;;7.65;73.79
59043;BME280;44826;51.596;5.624;2023-04-28T02:15:18;101116.38;;;7.64;73.50
59043;BME280;44826;51.596;5.624;2023-04-28T02:17:43;101117.22;;;7.65;73.51
59043;BME280;44826;51.596;5.624;2023-04-28T02:20:09;101119.81;;;7.66;73.88
59043;BME280;44826;51.596;5.624;2023-04-28T02:22:34;101109.44;;;7.66;74.70
59043;BME280;44826;51.596;5.624;2023-04-28T02:25:00;101103.41;;;7.67;74.18
59043;BME280;44826;51.596;5.624;2023-04-28T02:27:25;101103.38;;;7.66;74.41
59043;BME280;44826;51.596;5.624;2023-04-28T02:29:50;101099.09;;;7.65;74.64
59043;BME280;44826;51.596;5.624;2023-04-28T02:32:16;101094.81;;;7.62;74.97
59043;BME280;44826;51.596;5.624;2023-04-28T02:34:41;101087.03;;;7.62;74.45
59043;BME280;44826;51.596;5.624;2023-04-28T02:37:07;101082.72;;;7.61;74.78
59043;BME280;44826;51.596;5.624;2023-04-28T02:39:32;101068.06;;;7.60;75.14
59043;BME280;44826;51.596;5.624;2023-04-28T02:41:57;101062.03;;;7.59;74.93
59043;BME280;44826;51.596;5.624;2023-04-28T02:44:23;101054.28;;;7.59;74.94
59043;BME280;44826;51.596;5.624;2023-04-28T02:46:48;101048.22;;;7.59;75.46
59043;BME280;44826;51.596;5.624;2023-04-28T02:49:14;101043.91;;;7.58;75.43
59043;BME280;44826;51.596;5.624;2023-04-28T02:51:39;101054.28;;;7.56;76.33
59043;BME280;44826;51.596;5.624;2023-04-28T02:54:05;101045.66;;;7.56;76.09
59043;BME280;44826;51.596;5.624;2023-04-28T02:56:30;101031.84;;;7.57;76.58
59043;BME280;44826;51.596;5.624;2023-04-28T02:58:56;101024.97;;;7.53;76.12
59043;BME280;44826;51.596;5.624;2023-04-28T03:01:21;101010.31;;;7.53;77.06
59043;BME280;44826;51.596;5.624;2023-04-28T03:03:47;100999.94;;;7.52;77.26
59043;BME280;44826;51.596;5.624;2023-04-28T03:06:12;101012.91;;;7.52;76.87
59043;BME280;44826;51.596;5.624;2023-04-28T03:08:37;101016.38;;;7.51;76.70
59043;BME280;44826;51.596;5.624;2023-04-28T03:11:02;101013.78;;;7.49;77.89
59043;BME280;44826;51.596;5.624;2023-04-28T03:13:28;101023.25;;;7.52;78.02
59043;BME280;44826;51.596;5.624;2023-04-28T03:15:54;101022.38;;;7.53;77.79
59043;BME280;44826;51.596;5.624;2023-04-28T03:18:19;101018.91;;;7.55;77.59
59043;BME280;44826;51.596;5.624;2023-04-28T03:20:44;101016.31;;;7.57;78.22
59043;BME280;44826;51.596;5.624;2023-04-28T03:23:10;101013.72;;;7.58;78.21
59043;BME280;44826;51.596;5.624;2023-04-28T03:25:35;101016.28;;;7.60;78.19
59043;BME280;44826;51.596;5.624;2023-04-28T03:28:00;101015.41;;;7.61;78.12
59043;BME280;44826;51.596;5.624;2023-04-28T03:30:26;101013.63;;;7.65;78.70
59043;BME280;44826;51.596;5.624;2023-04-28T03:32:51;101014.50;;;7.65;78.38
59043;BME280;44826;51.596;5.624;2023-04-28T03:35:16;101008.44;;;7.68;78.70
59043;BME280;44826;51.596;5.624;2023-04-28T03:37:42;101012.75;;;7.67;78.92
59043;BME280;44826;51.596;5.624;2023-04-28T03:40:08;101017.88;;;7.70;79.50
59043;BME280;44826;51.596;5.624;2023-04-28T03:42:33;101009.25;;;7.71;79.32
59043;BME280;44826;51.596;5.624;2023-04-28T03:44:58;101004.91;;;7.73;79.06
59043;BME280;44826;51.596;5.624;2023-04-28T03:47:24;101006.63;;;7.74;79.68
59043;BME280;44826;51.596;5.624;2023-04-28T03:49:49;101003.16;;;7.75;79.29
59043;BME280;44826;51.596;5.624;2023-04-28T03:52:14;101000.56;;;7.75;79.29
59043;BME280;44826;51.596;5.624;2023-04-28T03:54:40;101003.13;;;7.77;79.70
59043;BME280;44826;51.596;5.624;2023-04-28T03:57:05;100995.31;;;7.80;80.32
59043;BME280;44826;51.596;5.624;2023-04-28T03:59:30;100994.44;;;7.81;79.66
59043;BME280;44826;51.596;5.624;2023-04-28T04:01:56;100996.16;;;7.82;79.77
59043;BME280;44826;51.596;5.624;2023-04-28T04:04:21;100993.56;;;7.82;80.35
59043;BME280;44826;51.596;5.624;2023-04-28T04:06:47;100988.41;;;7.84;80.50
59043;BME280;44826;51.596;5.624;2023-04-28T04:09:12;100990.94;;;7.87;80.89
59043;BME280;44826;51.596;5.624;2023-04-28T04:11:37;100992.66;;;7.88;81.10
59043;BME280;44826;51.596;5.624;2023-04-28T04:14:03;100995.22;;;7.88;80.80
59043;BME280;44826;51.596;5.624;2023-04-28T04:16:28;100984.88;;;7.89;80.66
59043;BME280;44826;51.596;5.624;2023-04-28T04:18:54;100988.28;;;7.93;81.12
59043;BME280;44826;51.596;5.624;2023-04-28T04:21:19;100984.81;;;7.94;80.67
59043;BME280;44826;51.596;5.624;2023-04-28T04:23:44;100983.06;;;7.95;81.06
59043;BME280;44826;51.596;5.624;2023-04-28T04:26:10;100978.75;;;7.95;81.19
59043;BME280;44826;51.596;5.624;2023-04-28T04:28:35;100973.53;;;7.97;81.60
59043;BME280;44826;51.596;5.624;2023-04-28T04:31:00;100975.25;;;7.98;82.07
59043;BME280;44826;51.596;5.624;2023-04-28T04:33:27;100971.81;;;7.97;81.67
59043;BME280;44826;51.596;5.624;2023-04-28T04:35:53;100978.72;;;7.98;82.04
59043;BME280;44826;51.596;5.624;2023-04-28T04:38:18;100978.72;;;7.97;82.42
59043;BME280;44826;51.596;5.624;2023-04-28T04:40:43;100983.03;;;7.99;82.33
59043;BME280;44826;51.596;5.624;2023-04-28T04:43:08;100975.22;;;8.01;82.50
59043;BME280;44826;51.596;5.624;2023-04-28T04:45:34;100976.06;;;8.03;82.11
59043;BME280;44826;51.596;5.624;2023-04-28T04:47:59;100979.50;;;8.03;82.72
59043;BME280;44826;51.596;5.624;2023-04-28T04:50:25;100983.00;;;8.02;82.55
59043;BME280;44826;51.596;5.624;2023-04-28T04:52:50;100976.03;;;8.06;82.58
59043;BME280;44826;51.596;5.624;2023-04-28T04:55:16;100964.78;;;8.07;82.86
59043;BME280;44826;51.596;5.624;2023-04-28T04:57:41;100953.50;;;8.10;82.48
59043;BME280;44826;51.596;5.624;2023-04-28T05:00:07;100960.41;;;8.11;83.45
59043;BME280;44826;51.596;5.624;2023-04-28T05:02:32;100953.47;;;8.13;83.52
59043;BME280;44826;51.596;5.624;2023-04-28T05:04:58;100959.50;;;8.15;83.34
59043;BME280;44826;51.596;5.624;2023-04-28T05:07:24;100956.03;;;8.16;83.26
59043;BME280;44826;51.596;5.624;2023-04-28T05:09:50;100952.53;;;8.18;83.40
59043;BME280;44826;51.596;5.624;2023-04-28T05:12:15;100954.25;;;8.19;83.52
59043;BME280;44826;51.596;5.624;2023-04-28T05:14:41;100960.28;;;8.20;82.96
59043;BME280;44826;51.596;5.624;2023-04-28T05:17:06;100957.69;;;8.20;83.78
59043;BME280;44826;51.596;5.624;2023-04-28T05:19:31;100947.28;;;8.25;83.79
59043;BME280;44826;51.596;5.624;2023-04-28T05:21:57;100956.72;;;8.27;83.85
59043;BME280;44826;51.596;5.624;2023-04-28T05:24:22;100953.22;;;8.31;84.79
59043;BME280;44826;51.596;5.624;2023-04-28T05:26:49;100951.44;;;8.37;84.50
59043;BME280;44826;51.596;5.624;2023-04-28T05:29:15;100938.38;;;8.41;84.67
59043;BME280;44826;51.596;5.624;2023-04-28T05:31:40;100925.34;;;8.46;85.07
59043;BME280;44826;51.596;5.624;2023-04-28T05:34:05;100916.63;;;8.52;84.79
59043;BME280;44826;51.596;5.624;2023-04-28T05:36:31;100919.09;;;8.59;85.19
59043;BME280;44826;51.596;5.624;2023-04-28T05:38:56;100919.03;;;8.64;85.08
59043;BME280;44826;51.596;5.624;2023-04-28T05:41:22;100911.25;;;8.65;85.38
59043;BME280;44826;51.596;5.624;2023-04-28T05:43:47;100921.56;;;8.69;85.10
59043;BME280;44826;51.596;5.624;2023-04-28T05:46:15;100920.66;;;8.71;85.47
59043;BME280;44826;51.596;5.624;2023-04-28T05:48:40;100927.56;;;8.72;85.69
59043;BME280;44826;51.596;5.624;2023-04-28T05:51:05;100939.59;;;8.76;85.76
59043;BME280;44826;51.596;5.624;2023-04-28T05:53:31;100934.38;;;8.79;86.24
59043;BME280;44826;51.596;5.624;2023-04-28T05:55:56;100929.97;;;8.83;85.44
59043;BME280;44826;51.596;5.624;2023-04-28T05:58:21;100918.69;;;8.86;85.64
59043;BME280;44826;51.596;5.624;2023-04-28T06:00:46;100920.34;;;8.90;86.01
59043;BME280;44826;51.596;5.624;2023-04-28T06:03:12;100931.50;;;8.93;85.91
59043;BME280;44826;51.596;5.624;2023-04-28T06:05:38;100927.13;;;8.97;86.48
59043;BME280;44826;51.596;5.624;2023-04-28T06:08:04;100931.38;;;9.03;86.76
59043;BME280;44826;51.596;5.624;2023-04-28T06:10:29;100927.81;;;9.08;87.06
59043;BME280;44826;51.596;5.624;2023-04-28T06:12:54;100936.31;;;9.15;86.97
59043;BME280;44826;51.596;5.624;2023-04-28T06:15:20;100931.03;;;9.21;87.05
59043;BME280;44826;51.596;5.624;2023-04-28T06:17:46;100925.72;;;9.27;86.55
59043;BME280;44826;51.596;5.624;2023-04-28T06:20:11;100922.16;;;9.32;87.12
59043;BME280;44826;51.596;5.624;2023-04-28T06:22:38;100914.28;;;9.38;87.16
59043;BME280;44826;51.596;5.624;2023-04-28T06:25:03;100928.88;;;9.44;87.01
59043;BME280;44826;51.596;5.624;2023-04-28T06:27:29;100921.88;;;9.47;87.31
59043;BME280;44826;51.596;5.624;2023-04-28T06:29:56;100927.91;;;9.49;86.95
59043;BME280;44826;51.596;5.624;2023-04-28T06:32:22;100927.91;;;9.49;86.85
59043;BME280;44826;51.596;5.624;2023-04-28T06:34:47;100923.47;;;9.54;87.28
59043;BME280;44826;51.596;5.624;2023-04-28T06:37:12;100919.84;;;9.62;87.32
59043;BME280;44826;51.596;5.624;2023-04-28T06:39:37;100924.88;;;9.71;87.85
59043;BME280;44826;51.596;5.624;2023-04-28T06:42:03;100923.84;;;9.78;87.49
59043;BME280;44826;51.596;5.624;2023-04-28T06:44:28;100917.69;;;9.82;87.38
59043;BME280;44826;51.596;5.624;2023-04-28T06:46:53;100919.44;;;9.82;87.28
59043;BME280;44826;51.596;5.624;2023-04-28T06:49:18;100917.69;;;9.82;87.53
59043;BME280;44826;51.596;5.624;2023-04-28T06:51:44;100921.13;;;9.84;88.09
59043;BME280;44826;51.596;5.624;2023-04-28T06:54:09;100922.66;;;9.93;88.38
59043;BME280;44826;51.596;5.624;2023-04-28T06:56:35;100920.78;;;10.00;88.39
59043;BME280;44826;51.596;5.624;2023-04-28T06:59:00;100915.53;;;10.03;88.77
59043;BME280;44826;51.596;5.624;2023-04-28T07:01:27;100916.25;;;10.08;88.65
59043;BME280;44826;51.596;5.624;2023-04-28T07:03:52;100915.31;;;10.12;88.24
59043;BME280;44826;51.596;5.624;2023-04-28T07:06:18;100910.91;;;10.16;88.36
59043;BME280;44826;51.596;5.624;2023-04-28T07:08:44;100912.41;;;10.25;88.45
59043;BME280;44826;51.596;5.624;2023-04-28T07:11:09;100909.59;;;10.34;88.45
59043;BME280;44826;51.596;5.624;2023-04-28T07:13:34;100910.28;;;10.42;88.60
59043;BME280;44826;51.596;5.624;2023-04-28T07:16:00;100906.66;;;10.50;88.91
59043;BME280;44826;51.596;5.624;2023-04-28T07:18:26;100903.84;;;10.59;88.83
59043;BME280;44826;51.596;5.624;2023-04-28T07:20:51;100901.06;;;10.67;89.34
59043;BME280;44826;51.596;5.624;2023-04-28T07:23:16;100905.19;;;10.75;88.78
59043;BME280;44826;51.596;5.624;2023-04-28T07:25:42;100900.63;;;10.84;88.19
59043;BME280;44826;51.596;5.624;2023-04-28T07:28:07;100896.91;;;10.92;89.28
59043;BME280;44826;51.596;5.624;2023-04-28T07:30:33;100905.28;;;11.04;89.39
59043;BME280;44826;51.596;5.624;2023-04-28T07:32:59;100898.09;;;11.14;88.70
59043;BME280;44826;51.596;5.624;2023-04-28T07:35:25;100899.59;;;11.22;89.28
59043;BME280;44826;51.596;5.624;2023-04-28T07:37:50;100895.94;;;11.28;88.34
59043;BME280;44826;51.596;5.624;2023-04-28T07:40:16;100886.25;;;11.35;89.02
59043;BME280;44826;51.596;5.624;2023-04-28T07:42:42;100891.13;;;11.46;89.51
59043;BME280;44826;51.596;5.624;2023-04-28T07:45:07;100901.28;;;11.55;88.50
59043;BME280;44826;51.596;5.624;2023-04-28T07:47:33;100907.25;;;11.60;89.03
59043;BME280;44826;51.596;5.624;2023-04-28T07:49:58;100903.63;;;11.64;88.67
59043;BME280;44826;51.596;5.624;2023-04-28T07:52:27;100900.94;;;11.67;88.43
59043;BME280;44826;51.596;5.624;2023-04-28T07:54:52;100904.34;;;11.69;88.49
59043;BME280;44826;51.596;5.624;2023-04-28T07:57:18;100905.31;;;11.67;87.92
59043;BME280;44826;51.596;5.624;2023-04-28T07:59:43;100897.47;;;11.67;88.50
59043;BME280;44826;51.596;5.624;2023-04-28T08:02:08;100904.44;;;11.66;87.97
59043;BME280;44826;51.596;5.624;2023-04-28T08:04:37;100908.81;;;11.64;88.62
59043;BME280;44826;51.596;5.624;2023-04-28T08:07:02;100913.34;;;11.59;88.66
59043;BME280;44826;51.596;5.624;2023-04-28T08:09:28;100909.06;;;11.57;89.12
59043;BME280;44826;51.596;5.624;2023-04-28T08:11:53;100912.59;;;11.54;88.57
59043;BME280;44826;51.596;5.624;2023-04-28T08:14:19;100911.78;;;11.52;89.22
59043;BME280;44826;51.596;5.624;2023-04-28T08:16:44;100912.75;;;11.49;90.31
59043;BME280;44826;51.596;5.624;2023-04-28T08:19:10;100912.69;;;11.51;89.88
59043;BME280;44826;51.596;5.624;2023-04-28T08:21:36;100906.50;;;11.55;91.18
59043;BME280;44826;51.596;5.624;2023-04-28T08:24:01;100917.75;;;11.57;91.29
59043;BME280;44826;51.596;5.624;2023-04-28T08:26:26;100907.31;;;11.57;91.75
59043;BME280;44826;51.596;5.624;2023-04-28T08:28:52;100906.50;;;11.55;91.68
59043;BME280;44826;51.596;5.624;2023-04-28T08:31:17;100909.06;;;11.57;91.96
59043;BME280;44826;51.596;5.624;2023-04-28T08:33:42;100909.94;;;11.57;91.64
59043;BME280;44826;51.596;5.624;2023-04-28T08:36:09;100909.84;;;11.60;92.65
59043;BME280;44826;51.596;5.624;2023-04-28T08:38:36;100914.94;;;11.63;92.58
59043;BME280;44826;51.596;5.624;2023-04-28T08:41:03;100923.56;;;11.65;92.44
59043;BME280;44826;51.596;5.624;2023-04-28T08:43:32;100915.75;;;11.65;92.21
59043;BME280;44826;51.596;5.624;2023-04-28T08:45:59;100913.97;;;11.67;92.96
59043;BME280;44826;51.596;5.624;2023-04-28T08:48:28;100910.31;;;11.73;93.71
59043;BME280;44826;51.596;5.624;2023-04-28T08:50:56;100913.69;;;11.77;93.62
59043;BME280;44826;51.596;5.624;2023-04-28T08:53:24;100909.19;;;11.82;94.24
59043;BME280;44826;51.596;5.624;2023-04-28T08:55:54;100909.09;;;11.85;94.06
59043;BME280;44826;51.596;5.624;2023-04-28T08:58:22;100910.75;;;11.88;93.32
59043;BME280;44826;51.596;5.624;2023-04-28T09:00:48;100905.44;;;11.91;93.82
59043;BME280;44826;51.596;5.624;2023-04-28T09:03:13;100911.31;;;11.97;94.80
59043;BME280;44826;51.596;5.624;2023-04-28T09:05:39;100907.59;;;12.08;94.04
59043;BME280;44826;51.596;5.624;2023-04-28T09:08:04;100916.06;;;12.14;94.54
59043;BME280;44826;51.596;5.624;2023-04-28T09:10:30;100920.41;;;12.14;93.91
59043;BME280;44826;51.596;5.624;2023-04-28T09:12:55;100917.97;;;12.09;94.08
59043;BME280;44826;51.596;5.624;2023-04-28T09:15:39;100919.00;;;12.04;93.13
59043;BME280;44826;51.596;5.624;2023-04-28T09:18:06;100913.88;;;12.01;94.44
59043;BME280;44826;51.596;5.624;2023-04-28T09:20:33;100904.31;;;12.01;94.75
59043;BME280;44826;51.596;5.624;2023-04-28T09:23:19;100914.75;;;12.01;94.16
59043;BME280;44826;51.596;5.624;2023-04-28T09:26:14;100919.09;;;12.01;92.69
59043;BME280;44826;51.596;5.624;2023-04-28T09:28:39;100906.78;;;12.06;94.22
59043;BME280;44826;51.596;5.624;2023-04-28T09:31:05;100908.28;;;12.13;94.95
59043;BME280;44826;51.596;5.624;2023-04-28T09:33:30;100902.88;;;12.19;94.60
59043;BME280;44826;51.596;5.624;2023-04-28T09:35:55;100902.72;;;12.24;95.62
59043;BME280;44826;51.596;5.624;2023-04-28T09:38:22;100916.53;;;12.27;94.60
59043;BME280;44826;51.596;5.624;2023-04-28T09:40:55;100913.88;;;12.29;94.73
59043;BME280;44826;51.596;5.624;2023-04-28T09:43:25;100909.31;;;12.36;95.07
59043;BME280;44826;51.596;5.624;2023-04-28T09:45:52;100911.78;;;12.40;95.20
59043;BME280;44826;51.596;5.624;2023-04-28T09:48:25;100907.31;;;12.44;94.82
59043;BME280;44826;51.596;5.624;2023-04-28T09:50:52;100906.28;;;12.48;94.38
59043;BME280;44826;51.596;5.624;2023-04-28T09:53:18;100906.19;;;12.51;94.77
59043;BME280;44826;51.596;5.624;2023-04-28T09:55:46;100894.88;;;12.52;94.45
59043;BME280;44826;51.596;5.624;2023-04-28T09:58:13;100910.53;;;12.52;94.25
59043;BME280;44826;51.596;5.624;2023-04-28T10:00:39;100915.75;;;12.52;94.56
59043;BME280;44826;51.596;5.624;2023-04-28T10:03:07;100913.94;;;12.54;93.63
59043;BME280;44826;51.596;5.624;2023-04-28T10:05:33;100913.09;;;12.54;93.92
59043;BME280;44826;51.596;5.624;2023-04-28T10:08:01;100914.81;;;12.55;93.92
59043;BME280;44826;51.596;5.624;2023-04-28T10:10:27;100908.66;;;12.56;94.47
59043;BME280;44826;51.596;5.624;2023-04-28T10:12:53;100912.03;;;12.59;94.12
59043;BME280;44826;51.596;5.624;2023-04-28T10:15:19;100909.38;;;12.61;94.28
59043;BME280;44826;51.596;5.624;2023-04-28T10:17:46;100906.59;;;12.66;94.08
59043;BME280;44826;51.596;5.624;2023-04-28T10:20:14;100912.47;;;12.72;94.56
59043;BME280;44826;51.596;5.624;2023-04-28T10:22:56;100910.47;;;12.81;94.70
59043;BME280;44826;51.596;5.624;2023-04-28T10:25:27;100907.69;;;12.85;94.03
59043;BME280;44826;51.596;5.624;2023-04-28T10:27:55;100906.69;;;12.89;94.03
59043;BME280;44826;51.596;5.624;2023-04-28T10:30:23;100917.06;;;12.91;94.11
59043;BME280;44826;51.596;5.624;2023-04-28T10:43:05;100914.59;;;13.12;93.69
59043;BME280;44826;51.596;5.624;2023-04-28T10:45:57;100909.22;;;13.16;93.37
59043;BME280;44826;51.596;5.624;2023-04-28T10:56:14;100907.03;;;13.29;91.93
59043;BME280;44826;51.596;5.624;2023-04-28T10:58:41;100902.66;;;13.30;92.38
59043;BME280;44826;51.596;5.624;2023-04-28T11:06:43;100893.94;;;13.31;91.85
59043;BME280;44826;51.596;5.624;2023-04-28T11:17:04;100891.84;;;13.64;91.08
59043;BME280;44826;51.596;5.624;2023-04-28T11:19:33;100895.88;;;13.73;90.71
59043;BME280;44826;51.596;5.624;2023-04-28T11:22:01;100886.63;;;13.87;91.58
59043;BME280;44826;51.596;5.624;2023-04-28T11:24:28;100886.16;;;13.99;90.18
59043;BME280;44826;51.596;5.624;2023-04-28T11:26:55;100884.16;;;14.06;88.87
59043;BME280;44826;51.596;5.624;2023-04-28T11:29:37;100877.09;;;14.08;89.45
59043;BME280;44826;51.596;5.624;2023-04-28T11:32:04;100882.25;;;14.09;89.89
59043;BME280;44826;51.596;5.624;2023-04-28T11:34:30;100877.84;;;14.11;89.93
59043;BME280;44826;51.596;5.624;2023-04-28T11:36:55;100885.69;;;14.11;88.76
59043;BME280;44826;51.596;5.624;2023-04-28T11:39:25;100882.25;;;14.09;88.64
59043;BME280;44826;51.596;5.624;2023-04-28T11:41:52;100877.03;;;14.09;87.46
59043;BME280;44826;51.596;5.624;2023-04-28T11:44:19;100883.19;;;14.08;88.41
59043;BME280;44826;51.596;5.624;2023-04-28T11:46:53;100882.25;;;14.09;88.51
59043;BME280;44826;51.596;5.624;2023-04-28T11:49:21;100885.78;;;14.08;88.39
59043;BME280;44826;51.596;5.624;2023-04-28T11:51:49;100880.56;;;14.08;88.53
59043;BME280;44826;51.596;5.624;2023-04-28T11:54:28;100885.91;;;14.05;87.97
59043;BME280;44826;51.596;5.624;2023-04-28T11:56:55;100889.44;;;14.04;88.28
59043;BME280;44826;51.596;5.624;2023-04-28T12:01:51;100883.41;;;14.02;88.30
59043;BME280;44826;51.596;5.624;2023-04-28T12:04:36;100892.06;;;14.04;88.06
59043;BME280;44826;51.596;5.624;2023-04-28T12:07:10;100892.97;;;14.03;88.68
59043;BME280;44826;51.596;5.624;2023-04-28T12:09:39;100893.09;;;14.00;88.69
59043;BME280;44826;51.596;5.624;2023-04-28T12:12:06;100893.22;;;13.97;89.26
59043;BME280;44826;51.596;5.624;2023-04-28T12:15:01;100896.88;;;13.93;89.80
59043;BME280;44826;51.596;5.624;2023-04-28T12:19:55;100907.81;;;13.80;90.79
59043;BME280;44826;51.596;5.624;2023-04-28T12:22:22;100905.50;;;13.73;91.65
59043;BME280;44826;51.596;5.624;2023-04-28T12:25:04;100911.78;;;13.67;91.27
59043;BME280;44826;51.596;5.624;2023-04-28T12:27:30;100912.81;;;13.63;92.05
59043;BME280;44826;51.596;5.624;2023-04-28T12:29:56;100913.72;;;13.62;92.60
59043;BME280;44826;51.596;5.624;2023-04-28T12:32:42;100920.78;;;13.60;93.22
59043;BME280;44826;51.596;5.624;2023-04-28T12:35:08;100915.59;;;13.58;93.70
59043;BME280;44826;51.596;5.624;2023-04-28T12:37:33;100921.00;;;13.54;94.18
59043;BME280;44826;51.596;5.624;2023-04-28T12:39:59;100918.56;;;13.49;94.16
59043;BME280;44826;51.596;5.624;2023-04-28T12:42:25;100919.38;;;13.49;94.00
59043;BME280;44826;51.596;5.624;2023-04-28T12:44:50;100915.03;;;13.50;94.19
59043;BME280;44826;51.596;5.624;2023-04-28T12:47:16;100921.06;;;13.52;94.52
59043;BME280;44826;51.596;5.624;2023-04-28T12:49:44;100923.59;;;13.54;93.67
59043;BME280;44826;51.596;5.624;2023-04-28T12:52:11;100926.22;;;13.54;93.84
59043;BME280;44826;51.596;5.624;2023-04-28T12:54:36;100935.88;;;13.51;94.25
59043;BME280;44826;51.596;5.624;2023-04-28T12:57:03;100942.97;;;13.48;93.58
59043;BME280;44826;51.596;5.624;2023-04-28T12:59:29;100944.13;;;13.41;92.26
59043;BME280;44826;51.596;5.624;2023-04-28T13:01:55;100948.28;;;13.19;92.31
59043;BME280;44826;51.596;5.624;2023-04-28T13:04:20;100944.34;;;13.08;93.44
59043;BME280;44826;51.596;5.624;2023-04-28T13:06:46;100941.91;;;13.03;93.96
59043;BME280;44826;51.596;5.624;2023-04-28T13:09:13;100947.22;;;13.00;94.07
59043;BME280;44826;51.596;5.624;2023-04-28T13:11:39;100945.66;;;12.96;92.76
59043;BME280;44826;51.596;5.624;2023-04-28T13:14:05;100960.69;;;12.89;93.26
59043;BME280;44826;51.596;5.624;2023-04-28T13:16:31;100951.16;;;12.86;94.06
59043;BME280;44826;51.596;5.624;2023-04-28T13:18:56;100959.91;;;12.85;93.28
59043;BME280;44826;51.596;5.624;2023-04-28T13:21:23;100964.19;;;12.88;93.02
59043;BME280;44826;51.596;5.624;2023-04-28T13:23:49;100960.69;;;12.89;92.89
59043;BME280;44826;51.596;5.624;2023-04-28T13:26:15;100956.28;;;12.89;92.78
59043;BME280;44826;51.596;5.624;2023-04-28T13:28:40;100953.69;;;12.89;92.36